Terminal Aerodrome Forecast
Issued by NWS

Home | Current Version | Previous Version | Text Only | Print | Product List | Glossary On
Versions: 1 2 3 4 5 6 7 8 9 10 11 12 13 14 15
000
FTUS45 KPSR 201100
TAFBLH
TAF
KBLH 201120Z 2012/2112 34004KT P6SM BKN200
     FM201400 VRB04KT P6SM OVC200
     FM210500 34004KT P6SM BKN250=

USA.gov is the U.S. government's official web portal to all federal, state and local government web resources and services.